Time;durP1;ratioP1;P1;durP2;ratioP2;P2;SDS_P1;SDS_P2;PMS_P1;PMS_P2;Temp;Humidity;BMP_temperature;BMP_pressure;BME280_temperature;BME280_humidity;BME280_pressure;Samples;Min_cycle;Max_cycle;Signal;HPM_P1;HPM_P2
2022/03/21 00:02:20;;;;;;;34.17;19.27;;;6.20;87.20;;;;;;5061289;28;20473;-50
2022/03/21 00:04:48;;;;;;;32.97;18.93;;;;;;;;;;5049661;28;20473;-50
2022/03/21 00:07:16;;;;;;;38.53;18.30;;;6.00;88.00;;;;;;5061525;28;20469;-51
2022/03/21 00:09:42;;;;;;;42.60;19.57;;;6.10;88.10;;;;;;5060195;28;20492;-51
2022/03/21 00:12:10;;;;;;;35.57;20.20;;;6.10;88.20;;;;;;5056345;28;20939;-51
2022/03/21 00:14:37;;;;;;;39.63;20.67;;;6.10;88.40;;;;;;5058549;28;21172;-53
2022/03/21 00:17:04;;;;;;;32.80;18.03;;;6.10;88.10;;;;;;5061548;28;20481;-51
2022/03/21 00:19:32;;;;;;;27.53;18.73;;;6.10;87.80;;;;;;5061157;28;20514;-51
2022/03/21 00:21:59;;;;;;;35.43;17.27;;;6.10;87.50;;;;;;5057614;28;20481;-52
2022/03/21 00:24:25;;;;;;;41.03;18.63;;;6.10;87.80;;;;;;5059959;28;20489;-51
2022/03/21 00:26:52;;;;;;;31.27;18.70;;;6.10;87.50;;;;;;5061639;28;20477;-51
2022/03/21 00:29:20;;;;;;;33.73;16.50;;;6.10;87.10;;;;;;5061085;28;20502;-51
2022/03/21 00:31:46;;;;;;;33.43;19.57;;;6.10;87.40;;;;;;5062036;28;20480;-51
2022/03/21 00:34:13;;;;;;;35.20;18.50;;;6.10;87.20;;;;;;5059577;28;21047;-50
2022/03/21 00:36:41;;;;;;;34.70;18.83;;;5.90;87.60;;;;;;5060894;28;20490;-51
2022/03/21 00:39:08;;;;;;;38.83;19.73;;;5.90;88.80;;;;;;5058909;28;20503;-51
2022/03/21 00:41:36;;;;;;;29.27;18.23;;;5.80;89.50;;;;;;5058814;28;20492;-51
2022/03/21 00:44:03;;;;;;;43.10;20.53;;;5.80;89.80;;;;;;5056773;28;20922;-51
2022/03/21 00:46:29;;;;;;;33.53;18.90;;;5.90;90.00;;;;;;5061318;28;20840;-51
2022/03/21 00:48:56;;;;;;;37.20;19.10;;;;;;;;;;5060110;28;20482;-51
2022/03/21 00:51:24;;;;;;;39.67;18.80;;;5.90;89.20;;;;;;5058999;28;20481;-51
2022/03/21 00:53:52;;;;;;;48.27;18.17;;;5.90;88.90;;;;;;5037851;28;21058;-51
2022/03/21 00:56:19;;;;;;;36.03;17.70;;;5.90;88.20;;;;;;5062937;28;20982;-51
2022/03/21 00:58:46;;;;;;;34.77;18.53;;;6.00;88.00;;;;;;5062895;28;20495;-51
2022/03/21 01:01:13;;;;;;;32.27;16.97;;;6.00;87.60;;;;;;5057443;28;20477;-51
2022/03/21 01:03:40;;;;;;;29.83;17.53;;;6.00;87.30;;;;;;5061523;28;20973;-52
2022/03/21 01:06:06;;;;;;;33.77;17.27;;;6.10;87.40;;;;;;5059727;28;20489;-52
2022/03/21 01:08:33;;;;;;;37.87;20.00;;;6.00;87.80;;;;;;5060844;28;20490;-51
2022/03/21 01:11:01;;;;;;;37.93;20.40;;;6.00;88.40;;;;;;5060554;28;20496;-52
2022/03/21 01:13:28;;;;;;;43.83;21.80;;;6.00;88.90;;;;;;5061031;28;20484;-52
2022/03/21 01:15:55;;;;;;;47.83;25.13;;;6.10;89.00;;;;;;5060742;28;20473;-51
2022/03/21 01:18:22;;;;;;;39.13;20.60;;;6.00;88.40;;;;;;5060162;28;20478;-51
2022/03/21 01:20:49;;;;;;;38.87;18.90;;;6.00;87.60;;;;;;5063956;28;20500;-51
2022/03/21 01:23:16;;;;;;;32.13;18.83;;;6.00;87.40;;;;;;5060189;28;20882;-51
2022/03/21 01:25:43;;;;;;;36.90;19.10;;;5.90;87.20;;;;;;5061254;28;20489;-51
2022/03/21 01:28:11;;;;;;;39.23;18.23;;;;;;;;;;5060309;28;20493;-51
2022/03/21 01:30:38;;;;;;;30.57;17.90;;;5.70;87.60;;;;;;5061276;28;20484;-52
2022/03/21 01:33:07;;;;;;;33.67;20.77;;;5.60;87.90;;;;;;5059641;28;20576;-51
2022/03/21 01:35:34;;;;;;;39.43;17.40;;;;;;;;;;5061715;28;20993;-51
2022/03/21 01:38:01;;;;;;;34.87;21.10;;;5.50;89.60;;;;;;5059519;28;20495;-51
2022/03/21 01:40:28;;;;;;;32.07;19.23;;;5.40;90.10;;;;;;5063673;28;20472;-51
2022/03/21 01:42:55;;;;;;;37.40;20.17;;;5.50;90.00;;;;;;5057255;28;20491;-50
2022/03/21 01:45:27;;;;;;;39.53;21.20;;;5.50;89.30;;;;;;5064540;28;20474;-51
2022/03/21 01:47:57;;;;;;;34.67;18.93;;;5.60;88.90;;;;;;5060476;28;20476;-51
2022/03/21 01:50:24;;;;;;;30.23;18.20;;;5.60;88.10;;;;;;5063973;28;20503;-50
2022/03/21 01:55:43;;;;;;;35.60;18.60;;;5.60;87.80;;;;;;5062044;28;20469;-51
2022/03/21 01:55:45;;;;;;;29.77;18.63;;;5.60;87.60;;;;;;5063988;28;20559;-52
2022/03/21 01:58:14;;;;;;;35.20;19.30;;;5.60;87.10;;;;;;5064301;28;20535;-52
2022/03/21 02:00:43;;;;;;;38.83;19.70;;;;;;;;;;5065057;28;20474;-51
2022/03/21 02:03:10;;;;;;;33.03;19.13;;;5.50;87.30;;;;;;5063240;28;20487;-52
2022/03/21 02:05:38;;;;;;;35.77;20.30;;;5.40;89.00;;;;;;5064050;28;21054;-52
2022/03/21 02:08:06;;;;;;;57.90;21.20;;;5.30;89.80;;;;;;5063975;28;20995;-51
2022/03/21 02:10:33;;;;;;;32.10;17.77;;;5.20;89.30;;;;;;5063285;28;20485;-52
2022/03/21 02:13:00;;;;;;;37.73;17.30;;;;;;;;;;5062857;28;20489;-51
2022/03/21 02:15:27;;;;;;;36.80;19.07;;;5.20;87.80;;;;;;5063810;28;20487;-51
2022/03/21 02:18:02;;;;;;;29.30;17.53;;;5.10;87.80;;;;;;5063828;28;20465;-51
2022/03/21 02:20:31;;;;;;;39.23;19.03;;;5.10;87.90;;;;;;5063884;28;20464;-52
2022/03/21 02:23:08;;;;;;;35.13;18.33;;;5.20;88.20;;;;;;5062364;28;20479;-51
2022/03/21 02:25:37;;;;;;;32.63;17.63;;;5.20;88.40;;;;;;5063451;28;20525;-52
2022/03/21 02:28:07;;;;;;;32.53;18.83;;;5.20;88.20;;;;;;5063249;28;20823;-51
2022/03/21 02:30:37;;;;;;;41.07;18.77;;;5.20;87.90;;;;;;5060388;28;20982;-51
2022/03/21 02:33:04;;;;;;;40.33;17.50;;;5.20;87.30;;;;;;5062420;28;21007;-51
2022/03/21 02:35:33;;;;;;;28.77;17.00;;;5.20;86.60;;;;;;5061315;28;20496;-52
2022/03/21 02:38:01;;;;;;;41.00;19.20;;;5.10;86.40;;;;;;5062275;28;20982;-52
2022/03/21 02:40:28;;;;;;;33.93;19.53;;;5.10;86.80;;;;;;5065006;28;20974;-51
2022/03/21 02:42:57;;;;;;;32.90;18.00;;;5.10;87.00;;;;;;5062236;28;20471;-50
2022/03/21 02:45:23;;;;;;;37.53;18.67;;;5.00;87.60;;;;;;5063360;28;20489;-50
2022/03/21 02:47:50;;;;;;;32.10;17.57;;;4.90;87.90;;;;;;5063561;28;20476;-50
2022/03/21 02:50:19;;;;;;;31.33;17.90;;;4.90;88.00;;;;;;5067212;28;20493;-50
2022/03/21 02:52:48;;;;;;;35.10;18.60;;;4.90;87.90;;;;;;5062593;28;20490;-50
2022/03/21 02:55:15;;;;;;;35.40;17.07;;;4.90;87.30;;;;;;5062871;28;20482;-50
2022/03/21 02:57:41;;;;;;;32.60;17.97;;;4.80;87.30;;;;;;5064308;28;20492;-51
2022/03/21 03:00:12;;;;;;;31.43;17.57;;;4.80;87.70;;;;;;5062613;28;20486;-51
2022/03/21 03:02:39;;;;;;;46.77;18.53;;;4.80;87.50;;;;;;5064264;28;20539;-54
2022/03/21 03:05:07;;;;;;;36.33;18.93;;;4.80;87.30;;;;;;5063842;28;21026;-51
2022/03/21 03:07:34;;;;;;;27.70;17.17;;;4.80;87.00;;;;;;5063065;28;20479;-51
2022/03/21 03:10:01;;;;;;;36.13;17.00;;;4.80;87.00;;;;;;5063454;28;21011;-51
2022/03/21 03:12:28;;;;;;;27.33;16.10;;;4.80;86.80;;;;;;5065873;28;20989;-50
2022/03/21 03:14:55;;;;;;;32.50;17.20;;;4.80;86.60;;;;;;5060225;28;20472;-50
2022/03/21 03:17:23;;;;;;;36.17;16.10;;;4.70;86.80;;;;;;5063452;28;20477;-51
2022/03/21 03:19:50;;;;;;;30.07;16.87;;;4.70;86.60;;;;;;5063215;28;20465;-50
2022/03/21 03:22:18;;;;;;;40.90;19.53;;;4.70;86.90;;;;;;5063372;28;20596;-50
2022/03/21 03:24:47;;;;;;;38.17;19.10;;;4.70;87.40;;;;;;5062248;28;20476;-50
2022/03/21 03:27:13;;;;;;;31.60;17.33;;;4.60;87.80;;;;;;5062402;28;20486;-50
2022/03/21 03:29:40;;;;;;;33.40;18.97;;;4.50;88.60;;;;;;5065855;28;20484;-51
2022/03/21 03:32:08;;;;;;;51.57;19.00;;;4.30;90.00;;;;;;5060170;28;20490;-50
2022/03/21 03:34:36;;;;;;;25.83;15.53;;;4.20;89.80;;;;;;5061431;28;20477;-50
2022/03/21 03:37:03;;;;;;;27.70;16.47;;;4.10;88.20;;;;;;5062350;28;20497;-51
2022/03/21 03:39:30;;;;;;;32.03;16.90;;;4.10;87.70;;;;;;5062812;28;21054;-50
2022/03/21 03:41:57;;;;;;;25.63;15.83;;;3.90;87.30;;;;;;5068338;28;20932;-50
2022/03/21 03:44:25;;;;;;;33.73;16.90;;;3.90;87.60;;;;;;5061876;28;20535;-51
2022/03/21 03:46:51;;;;;;;33.23;17.73;;;3.90;87.40;;;;;;5062027;28;20601;-51
2022/03/21 03:49:18;;;;;;;30.50;17.27;;;4.00;87.40;;;;;;5061328;28;20481;-51
2022/03/21 03:51:46;;;;;;;29.97;17.53;;;4.00;88.10;;;;;;5061516;28;20485;-52
2022/03/21 03:54:13;;;;;;;33.23;16.37;;;4.00;88.40;;;;;;5060468;28;20483;-51
2022/03/21 03:56:40;;;;;;;39.67;18.60;;;4.00;89.20;;;;;;5060723;28;20489;-51
2022/03/21 03:59:07;;;;;;;36.93;18.27;;;;;;;;;;5060852;28;20493;-49
2022/03/21 04:01:34;;;;;;;38.83;19.70;;;4.10;89.50;;;;;;5049605;28;20470;-49
2022/03/21 04:04:00;;;;;;;27.60;17.43;;;4.10;88.90;;;;;;5049072;28;20525;-48
2022/03/21 04:06:27;;;;;;;36.80;19.73;;;4.10;88.50;;;;;;5046727;28;20491;-51
2022/03/21 04:08:56;;;;;;;34.23;18.90;;;4.00;88.20;;;;;;5061065;28;20507;-51
2022/03/21 04:11:23;;;;;;;32.70;16.23;;;4.00;87.70;;;;;;5061364;28;20478;-51
2022/03/21 04:13:50;;;;;;;28.43;17.23;;;4.00;87.30;;;;;;5059457;28;20516;-51
2022/03/21 04:16:17;;;;;;;31.30;16.80;;;4.00;87.10;;;;;;5061248;28;20485;-50
2022/03/21 04:18:44;;;;;;;27.73;15.90;;;4.00;87.10;;;;;;5056812;28;20900;-50
2022/03/21 04:21:11;;;;;;;27.90;15.03;;;4.00;87.20;;;;;;5060886;28;20484;-50
2022/03/21 04:23:37;;;;;;;33.90;17.03;;;4.00;87.30;;;;;;5061020;28;20483;-50
2022/03/21 04:26:06;;;;;;;33.37;17.03;;;;;;;;;;5061327;28;20488;-50
2022/03/21 04:28:33;;;;;;;34.00;17.77;;;4.00;88.00;;;;;;5062823;28;20482;-49
2022/03/21 04:31:00;;;;;;;33.10;18.73;;;4.00;88.20;;;;;;5056982;28;20482;-50
2022/03/21 04:33:27;;;;;;;31.17;18.03;;;3.90;88.20;;;;;;5060396;28;20489;-50
2022/03/21 04:35:54;;;;;;;26.57;17.13;;;;;;;;;;5060399;28;20480;-50
2022/03/21 04:38:21;;;;;;;31.40;17.87;;;3.80;87.40;;;;;;5060710;28;20512;-50
2022/03/21 04:40:50;;;;;;;34.93;18.93;;;3.60;87.50;;;;;;5060127;28;20494;-50
2022/03/21 04:43:20;;;;;;;33.13;18.00;;;3.60;88.10;;;;;;5062537;28;20610;-50
2022/03/21 04:45:48;;;;;;;31.70;17.87;;;3.50;88.10;;;;;;5061205;28;20494;-50
2022/03/21 04:48:15;;;;;;;29.87;16.37;;;3.50;88.10;;;;;;5060678;28;20530;-49
2022/03/21 04:50:43;;;;;;;30.40;15.60;;;3.50;88.00;;;;;;5061461;28;20482;-50
2022/03/21 04:53:10;;;;;;;35.97;19.43;;;3.40;87.80;;;;;;5058289;28;20490;-49
2022/03/21 04:55:38;;;;;;;34.10;17.20;;;3.20;88.60;;;;;;5033346;28;20472;-50
2022/03/21 04:58:05;;;;;;;51.47;17.40;;;3.20;88.80;;;;;;5060610;28;20489;-49
2022/03/21 05:00:34;;;;;;;25.67;14.50;;;3.30;88.40;;;;;;5048225;28;21080;-49
2022/03/21 05:03:01;;;;;;;30.90;17.23;;;3.40;88.40;;;;;;5054969;28;21049;-49
2022/03/21 05:05:28;;;;;;;46.43;18.40;;;3.40;88.30;;;;;;5064581;28;20487;-50
2022/03/21 05:07:55;;;;;;;31.63;16.03;;;3.30;89.20;;;;;;5059047;28;20544;-49
2022/03/21 05:10:22;;;;;;;29.83;16.50;;;3.40;89.50;;;;;;5059183;28;20495;-49
2022/03/21 05:12:50;;;;;;;39.23;18.87;;;3.50;89.50;;;;;;5060400;28;20504;-50
2022/03/21 05:15:17;;;;;;;32.70;17.07;;;3.60;89.10;;;;;;5059481;28;20495;-49
2022/03/21 05:17:45;;;;;;;32.20;16.97;;;3.70;88.60;;;;;;5058824;28;20472;-50
2022/03/21 05:20:16;;;;;;;52.00;16.50;;;3.70;88.10;;;;;;5061193;28;20488;-49
2022/03/21 05:22:43;;;;;;;33.50;16.40;;;3.70;88.40;;;;;;5032736;28;20495;-50
2022/03/21 05:36:19;;;;;;;32.73;15.80;;;3.40;86.90;;;;;;5013120;28;20562;-50
2022/03/21 05:38:46;;;;;;;30.60;16.43;;;3.40;87.70;;;;;;5057930;28;21009;-50
2022/03/21 05:41:13;;;;;;;32.10;15.93;;;3.40;88.40;;;;;;5060742;28;20475;-48
2022/03/21 05:43:40;;;;;;;31.93;16.27;;;;;;;;;;5058874;28;20476;-49
2022/03/21 05:46:07;;;;;;;42.27;17.70;;;3.50;87.90;;;;;;5059963;28;20476;-49
2022/03/21 05:48:51;;;;;;;34.97;17.60;;;3.50;87.60;;;;;;5062349;28;20498;-49
2022/03/21 05:51:19;;;;;;;33.43;18.37;;;3.60;87.80;;;;;;5061588;28;20484;-49
2022/03/21 05:53:46;;;;;;;41.03;17.93;;;3.60;87.80;;;;;;5064796;28;20479;-49
2022/03/21 05:56:14;;;;;;;35.20;17.80;;;3.60;87.90;;;;;;5059783;28;20468;-49
2022/03/21 05:58:41;;;;;;;33.23;18.00;;;3.60;87.80;;;;;;5046525;28;20488;-49
2022/03/21 06:01:08;;;;;;;34.47;18.60;;;3.60;87.90;;;;;;5059323;28;21107;-50
2022/03/21 06:03:36;;;;;;;30.50;18.00;;;;;;;;;;5059900;28;20485;-49
2022/03/21 06:06:04;;;;;;;34.10;18.80;;;3.70;88.50;;;;;;5059145;28;21042;-50
2022/03/21 06:08:32;;;;;;;40.93;18.53;;;3.70;88.10;;;;;;5060819;28;20544;-49
2022/03/21 06:11:04;;;;;;;32.50;18.17;;;3.80;88.00;;;;;;5059192;28;20485;-50
2022/03/21 06:13:32;;;;;;;31.60;16.53;;;3.80;87.40;;;;;;5058368;28;21021;-49
2022/03/21 06:16:03;;;;;;;27.40;15.90;;;3.90;87.20;;;;;;5055230;28;20469;-50
2022/03/21 06:18:30;;;;;;;31.40;16.77;;;3.90;87.00;;;;;;5060748;28;20543;-50
2022/03/21 06:20:58;;;;;;;30.03;16.10;;;3.90;87.00;;;;;;5051482;28;20485;-50
2022/03/21 06:23:25;;;;;;;36.80;17.60;;;3.90;87.50;;;;;;5056653;28;20499;-50
2022/03/21 06:25:53;;;;;;;39.10;20.17;;;4.00;87.50;;;;;;5055889;28;20484;-49
2022/03/21 06:28:21;;;;;;;35.87;16.83;;;4.00;87.40;;;;;;5064488;28;20533;-50
2022/03/21 06:30:50;;;;;;;29.13;17.77;;;4.00;87.60;;;;;;5066680;28;20987;-50
2022/03/21 06:33:17;;;;;;;31.07;15.70;;;4.00;87.70;;;;;;5058183;28;20821;-49
2022/03/21 06:35:44;;;;;;;46.77;18.60;;;4.10;87.60;;;;;;5039232;28;20481;-50
2022/03/21 06:38:12;;;;;;;31.53;16.90;;;;;;;;;;5061392;28;20560;-49
2022/03/21 06:40:39;;;;;;;27.33;16.30;;;4.10;87.70;;;;;;5063834;28;20507;-49
2022/03/21 06:43:06;;;;;;;30.70;17.43;;;4.20;88.20;;;;;;5058465;28;21394;-49
2022/03/21 06:45:33;;;;;;;29.80;17.87;;;4.50;88.90;;;;;;5063501;28;20496;-49
2022/03/21 06:48:01;;;;;;;33.33;17.97;;;;;;;;;;5061665;28;20479;-50
2022/03/21 06:50:28;;;;;;;40.77;20.10;;;5.20;87.70;;;;;;5052152;28;20509;-49
2022/03/21 06:52:55;;;;;;;35.60;17.60;;;5.40;87.30;;;;;;5060316;28;20983;-49
2022/03/21 06:55:23;;;;;;;31.97;18.17;;;5.50;87.00;;;;;;5061372;28;20511;-49
2022/03/21 06:57:50;;;;;;;34.90;19.20;;;5.60;86.70;;;;;;5052084;28;20481;-51
2022/03/21 07:00:17;;;;;;;34.27;20.03;;;5.70;86.60;;;;;;5062406;28;20479;-49
2022/03/21 07:02:44;;;;;;;35.77;19.43;;;5.80;86.60;;;;;;5062678;28;20477;-49
2022/03/21 07:05:12;;;;;;;36.77;19.27;;;;;;;;;;5062094;28;20480;-50
2022/03/21 07:07:39;;;;;;;30.03;17.20;;;6.40;86.00;;;;;;5061837;28;21225;-50
2022/03/21 07:10:07;;;;;;;35.40;18.10;;;6.60;85.90;;;;;;5062480;28;20485;-49
2022/03/21 07:12:35;;;;;;;38.07;17.70;;;6.90;85.60;;;;;;5062574;28;20488;-49
2022/03/21 07:15:02;;;;;;;35.03;17.53;;;7.10;85.30;;;;;;5061265;28;20482;-49
2022/03/21 07:17:29;;;;;;;37.07;22.03;;;7.10;84.50;;;;;;5063119;28;20967;-49
2022/03/21 07:19:55;;;;;;;39.03;19.90;;;7.20;84.20;;;;;;5061198;28;20480;-49
2022/03/21 07:22:22;;;;;;;33.70;18.77;;;;;;;;;;5063055;28;20485;-48
2022/03/21 07:24:50;;;;;;;30.40;20.23;;;7.90;86.50;;;;;;5061839;28;20475;-49
2022/03/21 07:27:16;;;;;;;30.30;18.33;;;8.30;85.70;;;;;;5067018;28;20816;-49
2022/03/21 07:29:45;;;;;;;36.67;20.50;;;8.60;84.50;;;;;;5061670;28;20559;-49
2022/03/21 07:32:12;;;;;;;35.80;18.90;;;8.90;83.60;;;;;;5062713;28;20473;-49
2022/03/21 07:34:39;;;;;;;34.13;17.90;;;9.10;82.90;;;;;;5061878;28;20495;-49
2022/03/21 07:37:06;;;;;;;31.53;20.30;;;9.20;82.80;;;;;;5060577;28;20489;-49
2022/03/21 07:39:35;;;;;;;47.43;18.07;;;;;;;;;;5058576;28;20478;-49
2022/03/21 07:42:02;;;;;;;34.20;18.57;;;10.40;83.20;;;;;;5061284;28;20490;-49
2022/03/21 07:47:20;;;;;;;32.30;19.20;;;12.10;81.90;;;;;;5063990;28;20488;-49
2022/03/21 07:49:48;;;;;;;32.60;19.03;;;12.60;80.70;;;;;;5066478;28;20632;-49
2022/03/21 07:52:17;;;;;;;29.13;20.43;;;13.10;80.10;;;;;;5062498;28;20983;-49
2022/03/21 07:54:44;;;;;;;40.73;20.33;;;13.50;79.50;;;;;;5061506;28;20571;-49
2022/03/21 07:57:10;;;;;;;29.10;19.90;;;13.80;79.00;;;;;;5061325;28;20852;-49
2022/03/21 07:59:37;;;;;;;35.00;21.47;;;14.00;78.30;;;;;;5061817;28;20493;-49
2022/03/21 08:02:05;;;;;;;28.03;19.67;;;14.20;78.60;;;;;;5059087;28;20473;-49
2022/03/21 08:04:33;;;;;;;33.60;22.53;;;14.40;78.40;;;;;;5061841;28;20530;-49
2022/03/21 08:07:00;;;;;;;30.83;18.90;;;14.60;77.90;;;;;;5061828;28;21217;-49
2022/03/21 08:09:28;;;;;;;39.30;21.57;;;14.70;77.70;;;;;;5061492;28;20513;-50
2022/03/21 08:11:55;;;;;;;31.27;19.67;;;14.70;77.50;;;;;;5061122;28;21056;-49
2022/03/21 08:14:22;;;;;;;30.30;20.83;;;14.80;77.10;;;;;;5061260;28;20598;-50
2022/03/21 08:16:50;;;;;;;29.80;20.10;;;14.90;77.70;;;;;;5061949;28;20485;-49
2022/03/21 08:19:17;;;;;;;30.30;19.50;;;15.00;77.50;;;;;;5062622;28;20552;-50
2022/03/21 08:21:45;;;;;;;25.63;18.43;;;15.10;78.20;;;;;;5060286;28;20528;-50
2022/03/21 08:24:13;;;;;;;35.87;19.13;;;15.20;78.30;;;;;;5059161;28;20466;-50
2022/03/21 08:26:40;;;;;;;28.10;19.27;;;15.30;78.90;;;;;;5061668;28;21029;-50
2022/03/21 08:29:08;;;;;;;31.53;20.67;;;15.40;78.00;;;;;;5057078;28;20496;-50
2022/03/21 08:31:34;;;;;;;27.73;18.97;;;15.60;78.30;;;;;;5060927;28;21005;-50
2022/03/21 08:34:03;;;;;;;27.80;19.50;;;15.70;78.20;;;;;;5059795;28;20857;-50
2022/03/21 08:36:30;;;;;;;31.50;18.43;;;15.80;78.40;;;;;;5062103;28;20477;-50
2022/03/21 08:38:58;;;;;;;30.60;19.47;;;15.80;77.90;;;;;;5056156;28;20490;-50
2022/03/21 08:41:26;;;;;;;27.43;16.97;;;15.90;77.90;;;;;;5059337;28;20481;-51
2022/03/21 08:43:53;;;;;;;25.57;19.30;;;16.00;79.10;;;;;;5059300;28;20482;-51
2022/03/21 08:46:21;;;;;;;29.70;17.50;;;16.10;78.70;;;;;;5063461;28;20487;-50
2022/03/21 08:51:32;;;;;;;40.20;22.50;;;16.40;79.60;;;;;;5058026;28;20527;-50
2022/03/21 08:54:01;;;;;;;30.50;20.70;;;;;;;;;;5059390;28;20556;-50
2022/03/21 08:56:28;;;;;;;30.30;20.03;;;;;;;;;;5061424;28;20506;-50
2022/03/21 08:58:56;;;;;;;31.90;19.97;;;17.10;79.20;;;;;;5064332;28;21037;-50
2022/03/21 09:01:23;;;;;;;27.70;19.60;;;17.30;78.50;;;;;;5061039;28;20479;-51
2022/03/21 09:03:51;;;;;;;34.20;21.47;;;17.50;78.40;;;;;;5031543;28;20571;-50
2022/03/21 09:06:20;;;;;;;28.73;20.17;;;17.60;74.50;;;;;;5061162;28;20535;-50
2022/03/21 09:08:47;;;;;;;34.83;20.60;;;17.60;79.00;;;;;;5066177;28;20472;-50
2022/03/21 09:11:17;;;;;;;34.07;21.53;;;17.80;78.80;;;;;;5060575;28;20513;-50
2022/03/21 09:13:44;;;;;;;31.40;20.97;;;18.00;77.40;;;;;;5059487;28;20478;-50
2022/03/21 09:16:11;;;;;;;24.30;17.27;;;18.10;72.50;;;;;;5059861;28;20478;-50
2022/03/21 09:18:38;;;;;;;24.77;17.53;;;18.10;73.30;;;;;;5061060;28;20499;-51
2022/03/21 09:21:05;;;;;;;24.03;16.33;;;18.20;72.70;;;;;;5060085;28;20490;-50
2022/03/21 09:23:33;;;;;;;19.73;11.80;;;17.80;71.10;;;;;;5062546;28;20498;-50
2022/03/21 09:26:00;;;;;;;20.93;15.50;;;17.30;71.20;;;;;;5059287;28;20483;-50
2022/03/21 09:28:29;;;;;;;22.43;15.57;;;17.20;73.70;;;;;;5061288;28;21405;-50
2022/03/21 09:30:56;;;;;;;21.93;16.17;;;17.10;73.60;;;;;;5059154;28;20474;-53
2022/03/21 09:33:23;;;;;;;22.43;15.27;;;17.30;75.30;;;;;;5049543;28;20477;-49
2022/03/21 09:35:50;;;;;;;20.53;15.43;;;17.40;72.40;;;;;;5059539;28;20481;-50
2022/03/21 09:38:18;;;;;;;20.47;14.90;;;17.50;73.90;;;;;;5056903;28;20478;-50
2022/03/21 09:40:45;;;;;;;28.00;15.30;;;17.80;73.00;;;;;;5060722;28;20576;-50
2022/03/21 09:43:13;;;;;;;23.83;13.27;;;;;;;;;;5056521;28;20493;-52
2022/03/21 09:45:41;;;;;;;18.03;11.40;;;17.40;64.90;;;;;;5060889;28;20479;-50
2022/03/21 09:48:09;;;;;;;19.23;12.63;;;17.20;66.70;;;;;;5058650;28;20852;-50
2022/03/21 09:50:39;;;;;;;21.13;11.97;;;16.90;66.40;;;;;;5061032;28;20491;-50
2022/03/21 09:53:07;;;;;;;22.80;12.90;;;16.70;68.70;;;;;;5062763;28;21996;-49
2022/03/21 09:55:34;;;;;;;19.40;9.90;;;16.70;67.90;;;;;;5056788;28;20481;-51
2022/03/21 09:58:01;;;;;;;15.20;10.03;;;16.90;68.00;;;;;;5059242;28;20474;-51
2022/03/21 10:00:28;;;;;;;19.83;11.73;;;17.00;66.60;;;;;;5060501;28;20474;-52
2022/03/21 10:02:57;;;;;;;19.57;10.90;;;17.00;68.10;;;;;;5062265;28;20471;-51
2022/03/21 10:05:35;;;;;;;15.03;11.40;;;16.90;68.00;;;;;;5038368;28;20470;-51
2022/03/21 10:08:13;;;;;;;13.10;10.17;;;16.90;67.60;;;;;;5052242;28;20489;-52
2022/03/21 10:10:40;;;;;;;13.57;10.37;;;17.00;68.70;;;;;;5064307;28;20481;-52
2022/03/21 10:13:09;;;;;;;18.53;10.00;;;17.20;68.40;;;;;;5051401;28;21103;-51
2022/03/21 10:15:37;;;;;;;16.63;10.50;;;17.10;66.80;;;;;;5064396;28;20539;-51
2022/03/21 10:18:10;;;;;;;21.80;11.03;;;17.20;68.40;;;;;;5062330;28;20489;-52
2022/03/21 10:20:38;;;;;;;21.70;11.83;;;17.50;70.10;;;;;;5063124;28;20490;-53
2022/03/21 10:23:33;;;;;;;14.43;8.60;;;17.70;68.60;;;;;;5061015;28;20486;-52
2022/03/21 10:26:00;;;;;;;19.63;10.60;;;;;;;;;;5031456;28;20843;-52
2022/03/21 10:28:34;;;;;;;18.13;10.30;;;18.00;67.00;;;;;;5064409;28;20478;-52
2022/03/21 10:31:02;;;;;;;10.23;8.60;;;18.40;67.70;;;;;;5051457;28;20479;-52
2022/03/21 10:33:30;;;;;;;13.40;9.23;;;18.50;67.10;;;;;;5060311;28;20479;-51
2022/03/21 10:36:05;;;;;;;17.63;9.80;;;18.80;66.50;;;;;;5063563;28;20515;-52
2022/03/21 10:38:33;;;;;;;14.27;9.13;;;;;;;;;;5069126;28;20475;-52
2022/03/21 10:41:07;;;;;;;12.17;9.17;;;18.90;64.30;;;;;;5062471;28;20493;-55
2022/03/21 10:43:34;;;;;;;17.17;9.57;;;19.10;65.40;;;;;;5062564;28;20514;-52
2022/03/21 10:46:02;;;;;;;11.53;8.20;;;19.20;66.60;;;;;;5063078;28;20474;-53
2022/03/21 10:48:31;;;;;;;14.17;9.10;;;;;;;;;;5063196;28;20559;-52
2022/03/21 10:51:01;;;;;;;12.10;8.23;;;19.40;65.70;;;;;;5061022;28;20471;-52
2022/03/21 10:53:32;;;;;;;11.80;8.43;;;19.50;64.80;;;;;;5024215;28;20489;-52
2022/03/21 10:56:05;;;;;;;12.50;7.93;;;19.70;64.40;;;;;;5057799;28;20842;-52
2022/03/21 10:58:34;;;;;;;12.43;8.30;;;19.70;62.30;;;;;;5051698;28;20490;-53
2022/03/21 11:01:14;;;;;;;13.70;9.13;;;19.70;61.90;;;;;;5062294;28;20494;-58
2022/03/21 11:03:44;;;;;;;11.43;8.50;;;19.70;63.80;;;;;;5053039;28;20474;-52
2022/03/21 11:06:12;;;;;;;10.90;8.40;;;19.90;63.00;;;;;;5062013;28;20885;-52
2022/03/21 11:08:39;;;;;;;14.23;8.90;;;19.80;59.70;;;;;;5063363;28;20475;-51
2022/03/21 11:11:07;;;;;;;17.43;9.53;;;20.00;64.20;;;;;;5062156;28;20485;-51
2022/03/21 11:13:34;;;;;;;12.57;9.77;;;20.20;62.50;;;;;;5062008;28;20487;-52
2022/03/21 11:16:01;;;;;;;11.73;8.43;;;;;;;;;;5064726;28;20486;-51
2022/03/21 11:18:28;;;;;;;14.83;9.47;;;20.10;62.20;;;;;;5033597;28;20478;-51
2022/03/21 11:20:57;;;;;;;16.90;8.47;;;20.40;65.10;;;;;;5061746;28;20559;-51
2022/03/21 11:23:26;;;;;;;23.53;10.47;;;;;;;;;;5061957;28;20482;-51
2022/03/21 11:25:57;;;;;;;12.73;9.33;;;20.80;61.80;;;;;;5062037;28;20841;-52
2022/03/21 11:28:47;;;;;;;11.30;9.40;;;20.70;60.30;;;;;;5062170;28;20583;-51
2022/03/21 11:31:38;;;;;;;20.83;9.20;;;20.60;62.50;;;;;;5064614;28;20981;-51
2022/03/21 11:34:14;;;;;;;12.80;10.00;;;;;;;;;;5059156;28;20493;-51
2022/03/21 11:36:53;;;;;;;14.70;9.40;;;20.90;63.10;;;;;;5062876;28;20517;-52
2022/03/21 11:39:20;;;;;;;16.90;10.33;;;21.20;64.10;;;;;;5059286;28;20485;-51
2022/03/21 11:42:06;;;;;;;12.53;9.37;;;;;;;;;;5061657;28;20864;-51
2022/03/21 11:44:33;;;;;;;12.50;8.40;;;20.90;63.90;;;;;;5049370;28;20513;-51
2022/03/21 11:47:22;;;;;;;12.87;7.80;;;20.90;60.00;;;;;;5061908;28;20486;-51
2022/03/21 11:49:49;;;;;;;10.50;9.07;;;20.90;63.40;;;;;;5051091;28;20511;-51
2022/03/21 11:52:17;;;;;;;11.33;8.97;;;21.20;62.90;;;;;;5059991;28;21152;-51
2022/03/21 11:54:45;;;;;;;11.60;8.57;;;21.30;62.90;;;;;;5065661;28;20486;-51
2022/03/21 11:57:25;;;;;;;13.07;9.53;;;21.30;62.00;;;;;;5060798;28;21007;-52
2022/03/21 11:59:58;;;;;;;9.03;7.60;;;21.40;60.90;;;;;;5062224;28;21040;-52
2022/03/21 12:02:56;;;;;;;13.13;8.57;;;21.50;63.30;;;;;;5058674;28;21247;-51
2022/03/21 12:05:46;;;;;;;12.60;9.20;;;21.80;62.60;;;;;;5062644;28;20439;-51
2022/03/21 12:08:50;;;;;;;10.93;7.70;;;21.90;59.00;;;;;;5058474;28;20508;-51
2022/03/21 12:11:50;;;;;;;9.73;7.03;;;;;;;;;;5060625;28;20843;-52
2022/03/21 12:14:29;;;;;;;78.23;15.30;;;22.00;59.90;;;;;;5057461;28;21035;-52
2022/03/21 12:17:27;;;;;;;15.53;8.60;;;21.90;58.90;;;;;;5061062;28;20492;-52
2022/03/21 12:20:05;;;;;;;11.03;8.20;;;22.10;63.10;;;;;;5061615;28;20546;-52
2022/03/21 12:22:39;;;;;;;14.87;8.87;;;22.30;60.60;;;;;;5034921;28;20474;-52
2022/03/21 12:25:12;;;;;;;10.13;8.20;;;21.60;56.40;;;;;;5059200;28;20484;-52
2022/03/21 12:27:41;;;;;;;11.57;8.07;;;21.40;57.00;;;;;;5053890;28;20484;-53
2022/03/21 12:30:48;;;;;;;12.83;8.73;;;20.90;57.20;;;;;;5060921;28;20487;-52
2022/03/21 12:33:28;;;;;;;14.83;8.50;;;20.50;59.90;;;;;;5048792;28;20470;-51
2022/03/21 12:36:07;;;;;;;11.50;7.70;;;;;;;;;;5060470;28;21655;-52
2022/03/21 12:38:43;;;;;;;9.13;6.60;;;20.80;57.00;;;;;;5050523;28;20907;-53
2022/03/21 12:41:13;;;;;;;15.87;7.77;;;20.90;57.30;;;;;;5058946;28;20480;-52
2022/03/21 12:43:50;;;;;;;10.97;8.43;;;20.60;58.60;;;;;;5059392;28;20471;-53
2022/03/21 12:46:19;;;;;;;9.60;7.27;;;20.50;57.90;;;;;;5064755;28;20474;-52
2022/03/21 12:48:47;;;;;;;14.43;8.03;;;;;;;;;;5060772;28;20582;-52
2022/03/21 12:51:24;;;;;;;9.37;6.90;;;20.90;58.30;;;;;;5060896;28;20506;-52
2022/03/21 12:53:51;;;;;;;12.30;7.53;;;21.50;62.40;;;;;;5059366;28;21003;-52
2022/03/21 12:56:20;;;;;;;13.63;8.20;;;;;;;;;;5061612;28;20510;-52
2022/03/21 12:58:49;;;;;;;8.63;7.37;;;22.20;59.60;;;;;;5061684;28;20459;-52
2022/03/21 13:01:17;;;;;;;18.67;6.57;;;22.60;59.60;;;;;;5059011;28;21033;-52
2022/03/21 13:03:44;;;;;;;12.23;7.60;;;;;;;;;;5059958;28;20480;-52
2022/03/21 13:11:46;;;;;;;13.03;7.30;;;22.70;56.90;;;;;;5060594;28;20469;-53
2022/03/21 13:14:15;;;;;;;13.93;8.60;;;22.60;59.00;;;;;;5059678;28;20493;-52
2022/03/21 13:16:49;;;;;;;11.70;7.57;;;22.40;56.80;;;;;;5060592;28;20472;-53